METAR Data
IDs: Format: Raw Decoded Include TAF

Data at: 1519 UTC 10 Aug 2022

KSBD 101451Z 00000KT 10SM CLR 26/08 A3004
KSBD 101351Z 00000KT 7SM CLR 22/08 A3002
KSBD 101240Z AUTO 00000KT 10SM CLR 23/06 A3000 RMK AO2 T02290063
KSBD 101220Z AUTO 00000KT 10SM CLR 23/06 A2999 RMK AO2 T02300060
KSBD 101200Z AUTO 00000KT 10SM CLR 23/06 A2999 RMK AO2 T02310060
KSBD 101140Z AUTO 00000KT 10SM CLR 24/06 A3000 RMK AO2 T02390063
KSBD 101120Z AUTO 00000KT 10SM CLR 24/06 A3000 RMK AO2 T02350060
KSBD 101100Z AUTO 00000KT 10SM CLR 23/06 A3000 RMK AO2 T02320060
KSBD 101040Z AUTO 00000KT 10SM CLR 24/06 A3000 RMK AO2 T02400063
KSBD 101020Z AUTO 00000KT 10SM CLR 24/08 A3000 RMK AO2 T02430082
KSBD 101000Z AUTO 00000KT 10SM CLR 25/09 A3000 RMK AO2 T02450094
KSBD 100940Z AUTO 00000KT 10SM CLR 25/10 A3000 RMK AO2 T02450095
KSBD 100920Z AUTO 26003KT 10SM CLR 25/09 A3000 RMK AO2 T02460093
KSBD 100900Z AUTO 26003KT 10SM CLR 25/09 A3001 RMK AO2 T02450091
KSBD 100840Z AUTO 26003KT 10SM CLR 25/09 A3000 RMK AO2 T02490088
KSBD 100820Z AUTO 25004KT 10SM CLR 25/09 A3000 RMK AO2 T02500086
KSBD 100800Z AUTO 26003KT 10SM CLR 25/08 A3000 RMK AO2 T02530080
KSBD 100740Z AUTO 00000KT 10SM CLR 26/08 A3000 RMK AO2 T02610078
KSBD 100720Z AUTO 23004KT 10SM CLR 27/08 A3001 RMK AO2 T02650075
KSBD 100700Z AUTO 24003KT 10SM CLR 27/07 A3001 RMK AO2 T02670066
KSBD 100640Z AUTO 25003KT 10SM CLR 27/06 A3000 RMK AO2 T02710060
KSBD 100620Z AUTO 24004KT 10SM CLR 28/05 A3000 RMK AO2 T02790052
KSBD 100600Z AUTO 25004KT 10SM CLR 28/04 A2999 RMK AO2 T02780041
KSBD 100540Z AUTO 00000KT 10SM CLR 29/04 A2999 RMK AO2 T02850038
KSBD 100520Z AUTO 23003KT 10SM CLR 29/03 A2999 RMK AO2 T02910025
KSBD 100500Z AUTO 25004KT 10SM CLR 30/01 A2999 RMK AO2 T02970005
KSBD 100440Z AUTO 00000KT 10SM CLR 30/M01 A2998 RMK AO2 T02961006
KSBD 100355Z 25008KT 10SM CLR 30/M01 A2995 RMK LAST
KSBD 100252Z 25007KT 10SM SCT120 32/03 A2994
KSBD 100155Z 25008KT 10SM FEW120 33/04 A2991
KSBD 100051Z 27011G16KT 7SM FEW120 35/07 A2989
KSBD 092351Z 25014G22KT 7SM FEW120 36/07 A2988
KSBD 092253Z 26010G20KT 7SM FEW120 38/07 A2988
KSBD 092153Z 28010G15KT 7SM FEW120 38/06 A2989
KSBD 092053Z 29009KT 10SM FEW120 38/07 A2992
KSBD 092035Z 24008KT 10SM FEW120 38/06 A2993
KSBD 091952Z 00000KT 10SM SCT120 37/07 A2994
KSBD 091853Z 25004KT 10SM FEW120 35/06 A2996
KSBD 091656Z 00000KT 10SM SCT120 30/08 A2999
KSBD 091551Z 00000KT 10SM SCT120 28/09 A2999
KSBD 091451Z 00000KT 7SM SCT120 26/09 A2998
KSBD 091350Z 00000KT 10SM SCT120 24/09 A2996
KSBD 091240Z AUTO 00000KT 10SM CLR 25/08 A2995 RMK AO2 T02480075
KSBD 091220Z AUTO 00000KT 10SM CLR 25/07 A2994 RMK AO2 T02470073
KSBD 091200Z AUTO 00000KT 10SM CLR 25/10 A2994 RMK AO2 T02510095
KSBD 091140Z AUTO 00000KT 10SM CLR 26/10 A2994 RMK AO2 T02550096
KSBD 091120Z AUTO 00000KT 10SM CLR 26/10 A2993 RMK AO2 T02550095
KSBD 091100Z AUTO 21003KT 10SM CLR 25/09 A2994 RMK AO2 T02540094
KSBD 091040Z AUTO 00000KT 10SM CLR 25/09 A2994 RMK AO2 T02520092
KSBD 091020Z AUTO 00000KT 10SM CLR 26/09 A2994 RMK AO2 T02560091
KSBD 091000Z AUTO 00000KT 10SM CLR 26/09 A2994 RMK AO2 T02600091
KSBD 090940Z AUTO 00000KT 10SM CLR 26/09 A2994 RMK AO2 T02600090
KSBD 090920Z AUTO 26003KT 10SM CLR 26/09 A2994 RMK AO2 T02550086
KSBD 090900Z AUTO 27003KT 10SM CLR 26/09 A2994 RMK AO2 T02600085
KSBD 090840Z AUTO 26005KT 10SM CLR 27/08 A2994 RMK AO2 T02650084
KSBD 090820Z AUTO 25003KT 10SM CLR 27/09 A2994 RMK AO2 T02700086
KSBD 090800Z AUTO 25005KT 10SM CLR 27/09 A2996 RMK AO2 T02730087
KSBD 090740Z AUTO 25005KT 10SM CLR 28/09 A2996 RMK AO2 T02760086
KSBD 090720Z AUTO 25005KT 10SM CLR 28/08 A2996 RMK AO2 T02760080
KSBD 090700Z AUTO 26004KT 10SM CLR 28/08 A2997 RMK AO2 T02800080
KSBD 090640Z AUTO 24004KT 10SM CLR 29/08 A2997 RMK AO2 T02850078
KSBD 090620Z AUTO 24004KT 10SM CLR 29/07 A2996 RMK AO2 T02880066
KSBD 090600Z AUTO 25004KT 10SM CLR 29/07 A2996 RMK AO2 T02880070
KSBD 090540Z AUTO 26005KT 10SM CLR 29/06 A2995 RMK AO2 T02900062
KSBD 090520Z AUTO 27005KT 10SM CLR 29/06 A2996 RMK AO2 T02930057
KSBD 090500Z AUTO 27006KT 10SM CLR 30/06 A2996 RMK AO2 T03000057
KSBD 090440Z AUTO 27006KT 10SM CLR 30/05 A2996 RMK AO2 T03030050
KSBD 090354Z 26007KT 7SM SCT120 31/05 A2994